sensor_id;sensor_type;location;lat;lon;timestamp;pressure;altitude;pressure_sealevel;temperature;humidity
16690;BME280;8458;52.220;9.884;2023-01-13T00:00:49;99563.31;;;9.65;100.00
16690;BME280;8458;52.220;9.884;2023-01-13T00:03:15;99562.75;;;9.68;100.00
16690;BME280;8458;52.220;9.884;2023-01-13T00:05:42;99567.19;;;9.69;100.00
16690;BME280;8458;52.220;9.884;2023-01-13T00:08:08;99555.00;;;9.70;100.00
16690;BME280;8458;52.220;9.884;2023-01-13T00:10:36;99528.44;;;9.69;100.00
16690;BME280;8458;52.220;9.884;2023-01-13T00:13:03;99529.53;;;9.73;100.00
16690;BME280;8458;52.220;9.884;2023-01-13T00:15:32;99531.16;;;9.74;100.00
16690;BME280;8458;52.220;9.884;2023-01-13T00:17:58;99528.41;;;9.74;100.00
16690;BME280;8458;52.220;9.884;2023-01-13T00:20:25;99525.63;;;9.74;100.00
16690;BME280;8458;52.220;9.884;2023-01-13T00:22:51;99533.41;;;9.72;100.00
16690;BME280;8458;52.220;9.884;2023-01-13T00:25:18;99525.63;;;9.74;100.00
16690;BME280;8458;52.220;9.884;2023-01-13T00:27:44;99516.22;;;9.75;100.00
16690;BME280;8458;52.220;9.884;2023-01-13T00:30:11;99513.41;;;9.80;100.00
16690;BME280;8458;52.220;9.884;2023-01-13T00:32:39;99517.84;;;9.81;100.00
16690;BME280;8458;52.220;9.884;2023-01-13T00:35:06;99509.53;;;9.81;100.00
16690;BME280;8458;52.220;9.884;2023-01-13T00:37:35;99516.16;;;9.85;100.00
16690;BME280;8458;52.220;9.884;2023-01-13T00:40:02;99518.38;;;9.83;100.00
16690;BME280;8458;52.220;9.884;2023-01-13T00:42:29;99510.63;;;9.85;100.00
16690;BME280;8458;52.220;9.884;2023-01-13T00:45:13;99505.91;;;9.86;100.00
16690;BME280;8458;52.220;9.884;2023-01-13T00:47:41;99500.88;;;9.88;100.00
16690;BME280;8458;52.220;9.884;2023-01-13T00:50:09;99488.94;;;9.93;100.00
16690;BME280;8458;52.220;9.884;2023-01-13T00:52:35;99483.13;;;9.94;100.00
16690;BME280;8458;52.220;9.884;2023-01-13T00:55:02;99483.38;;;9.98;100.00
16690;BME280;8458;52.220;9.884;2023-01-13T00:57:29;99489.44;;;10.00;100.00
16690;BME280;8458;52.220;9.884;2023-01-13T00:59:55;99494.97;;;10.00;100.00
16690;BME280;8458;52.220;9.884;2023-01-13T01:02:21;99483.31;;;10.03;100.00
16690;BME280;8458;52.220;9.884;2023-01-13T01:04:49;99482.25;;;9.99;100.00
16690;BME280;8458;52.220;9.884;2023-01-13T01:07:16;99487.19;;;10.02;100.00
16690;BME280;8458;52.220;9.884;2023-01-13T01:09:43;99480.34;;;9.94;100.00
16690;BME280;8458;52.220;9.884;2023-01-13T01:12:09;99478.94;;;9.97;100.00
16690;BME280;8458;52.220;9.884;2023-01-13T01:14:35;99477.25;;;10.01;100.00
16690;BME280;8458;52.220;9.884;2023-01-13T01:17:02;99481.72;;;9.97;100.00
16690;BME280;8458;52.220;9.884;2023-01-13T01:19:29;99475.66;;;9.95;100.00
16690;BME280;8458;52.220;9.884;2023-01-13T01:21:57;99490.38;;;9.90;100.00
16690;BME280;8458;52.220;9.884;2023-01-13T01:24:23;99488.38;;;9.96;100.00
16690;BME280;8458;52.220;9.884;2023-01-13T01:26:49;99491.69;;;9.98;100.00
16690;BME280;8458;52.220;9.884;2023-01-13T01:29:16;99494.97;;;10.00;100.00
16690;BME280;8458;52.220;9.884;2023-01-13T01:31:43;99501.59;;;10.04;100.00
16690;BME280;8458;52.220;9.884;2023-01-13T01:34:09;99504.38;;;10.04;100.00
16690;BME280;8458;52.220;9.884;2023-01-13T01:36:36;99501.63;;;9.99;100.00
16690;BME280;8458;52.220;9.884;2023-01-13T01:39:04;99498.28;;;10.02;100.00
16690;BME280;8458;52.220;9.884;2023-01-13T01:41:33;99496.38;;;9.97;100.00
16690;BME280;8458;52.220;9.884;2023-01-13T01:44:01;99506.63;;;9.97;100.00
16690;BME280;8458;52.220;9.884;2023-01-13T01:46:32;99485.56;;;10.01;100.00
16690;BME280;8458;52.220;9.884;2023-01-13T01:49:04;99488.88;;;10.03;100.00
16690;BME280;8458;52.220;9.884;2023-01-13T01:51:35;99499.38;;;10.06;100.00
16690;BME280;8458;52.220;9.884;2023-01-13T01:54:05;99507.16;;;10.04;100.00
16690;BME280;8458;52.220;9.884;2023-01-13T01:56:34;99529.31;;;10.04;99.59
16690;BME280;8458;52.220;9.884;2023-01-13T01:59:01;99513.75;;;10.08;95.87
16690;BME280;8458;52.220;9.884;2023-01-13T02:01:27;99497.13;;;10.08;94.89
16690;BME280;8458;52.220;9.884;2023-01-13T02:03:58;99497.69;;;10.05;95.11
16690;BME280;8458;52.220;9.884;2023-01-13T02:06:27;99484.72;;;10.00;94.89
16690;BME280;8458;52.220;9.884;2023-01-13T02:08:55;99501.16;;;9.92;95.23
16690;BME280;8458;52.220;9.884;2023-01-13T02:11:28;99486.81;;;9.84;95.20
16690;BME280;8458;52.220;9.884;2023-01-13T02:14:12;99493.44;;;9.83;94.52
16690;BME280;8458;52.220;9.884;2023-01-13T02:16:44;99487.91;;;9.83;94.68
16690;BME280;8458;52.220;9.884;2023-01-13T02:19:41;99489.03;;;9.82;94.74
16690;BME280;8458;52.220;9.884;2023-01-13T02:22:37;99493.50;;;9.78;95.85
16690;BME280;8458;52.220;9.884;2023-01-13T02:25:28;99490.19;;;9.76;96.19
16690;BME280;8458;52.220;9.884;2023-01-13T02:28:08;99485.19;;;9.78;95.59
16690;BME280;8458;52.220;9.884;2023-01-13T02:30:46;99494.66;;;9.72;95.46
16690;BME280;8458;52.220;9.884;2023-01-13T02:33:38;99492.41;;;9.74;95.27
16690;BME280;8458;52.220;9.884;2023-01-13T02:36:19;99492.97;;;9.76;95.56
16690;BME280;8458;52.220;9.884;2023-01-13T02:38:50;99493.78;;;9.77;95.03
16690;BME280;8458;52.220;9.884;2023-01-13T02:41:23;99489.09;;;9.72;95.37
16690;BME280;8458;52.220;9.884;2023-01-13T02:44:09;99492.97;;;9.71;95.35
16690;BME280;8458;52.220;9.884;2023-01-13T02:46:50;99495.22;;;9.69;95.99
16690;BME280;8458;52.220;9.884;2023-01-13T02:49:24;99498.53;;;9.71;96.21
16690;BME280;8458;52.220;9.884;2023-01-13T02:51:59;99503.56;;;9.64;97.14
16690;BME280;8458;52.220;9.884;2023-01-13T02:54:28;99497.47;;;9.62;97.71
16690;BME280;8458;52.220;9.884;2023-01-13T02:56:56;99492.50;;;9.64;97.66
16690;BME280;8458;52.220;9.884;2023-01-13T02:59:25;99495.84;;;9.56;98.36
16690;BME280;8458;52.220;9.884;2023-01-13T03:01:55;99497.53;;;9.57;98.21
16690;BME280;8458;52.220;9.884;2023-01-13T03:04:48;99508.25;;;9.63;98.48
16690;BME280;8458;52.220;9.884;2023-01-13T03:07:30;99523.28;;;9.52;99.07
16690;BME280;8458;52.220;9.884;2023-01-13T03:10:05;99523.00;;;9.54;99.46
16690;BME280;8458;52.220;9.884;2023-01-13T03:12:41;99527.44;;;9.55;99.08
16690;BME280;8458;52.220;9.884;2023-01-13T03:15:14;99529.38;;;9.49;98.22
16690;BME280;8458;52.220;9.884;2023-01-13T03:17:48;99529.34;;;9.54;98.44
16690;BME280;8458;52.220;9.884;2023-01-13T03:20:24;99510.81;;;9.55;98.74
16690;BME280;8458;52.220;9.884;2023-01-13T03:22:59;99506.63;;;9.57;99.31
16690;BME280;8458;52.220;9.884;2023-01-13T03:25:30;99516.06;;;9.56;98.94
16690;BME280;8458;52.220;9.884;2023-01-13T03:28:02;99519.13;;;9.55;99.10
16690;BME280;8458;52.220;9.884;2023-01-13T03:30:33;99516.88;;;9.57;98.99
16690;BME280;8458;52.220;9.884;2023-01-13T03:33:06;99524.09;;;9.52;98.53
16690;BME280;8458;52.220;9.884;2023-01-13T03:35:37;99496.44;;;9.52;98.34
16690;BME280;8458;52.220;9.884;2023-01-13T03:38:09;99526.06;;;9.52;98.32
16690;BME280;8458;52.220;9.884;2023-01-13T03:40:40;99530.47;;;9.53;97.84
16690;BME280;8458;52.220;9.884;2023-01-13T03:43:13;99524.38;;;9.56;97.82
16690;BME280;8458;52.220;9.884;2023-01-13T03:46:03;99506.91;;;9.61;97.66
16690;BME280;8458;52.220;9.884;2023-01-13T03:48:34;99513.88;;;9.53;97.21
16690;BME280;8458;52.220;9.884;2023-01-13T03:51:04;99510.81;;;9.55;95.84
16690;BME280;8458;52.220;9.884;2023-01-13T03:53:34;99502.53;;;9.49;94.93
16690;BME280;8458;52.220;9.884;2023-01-13T03:56:06;99510.56;;;9.51;94.00
16690;BME280;8458;52.220;9.884;2023-01-13T03:58:38;99515.28;;;9.50;92.42
16690;BME280;8458;52.220;9.884;2023-01-13T04:01:11;99519.13;;;9.49;91.78
16690;BME280;8458;52.220;9.884;2023-01-13T04:03:44;99518.06;;;9.45;91.18
16690;BME280;8458;52.220;9.884;2023-01-13T04:06:17;99518.06;;;9.45;91.52
16690;BME280;8458;52.220;9.884;2023-01-13T04:08:50;99514.75;;;9.43;91.71
16690;BME280;8458;52.220;9.884;2023-01-13T04:11:23;99495.38;;;9.48;91.66
16690;BME280;8458;52.220;9.884;2023-01-13T04:13:54;99494.28;;;9.44;92.17
16690;BME280;8458;52.220;9.884;2023-01-13T04:16:21;99488.75;;;9.44;92.40
16690;BME280;8458;52.220;9.884;2023-01-13T04:18:48;99487.38;;;9.42;92.45
16690;BME280;8458;52.220;9.884;2023-01-13T04:21:15;99488.75;;;9.44;92.80
16690;BME280;8458;52.220;9.884;2023-01-13T04:23:42;99497.56;;;9.46;92.92
16690;BME280;8458;52.220;9.884;2023-01-13T04:26:08;99504.19;;;9.50;93.09
16690;BME280;8458;52.220;9.884;2023-01-13T04:28:34;99512.03;;;9.38;92.92
16690;BME280;8458;52.220;9.884;2023-01-13T04:31:01;99500.97;;;9.38;91.27
16690;BME280;8458;52.220;9.884;2023-01-13T04:33:27;99509.78;;;9.40;89.84
16690;BME280;8458;52.220;9.884;2023-01-13T04:35:55;99510.34;;;9.37;88.20
16690;BME280;8458;52.220;9.884;2023-01-13T04:38:22;99504.56;;;9.33;88.57
16690;BME280;8458;52.220;9.884;2023-01-13T04:40:48;99518.69;;;9.32;89.42
16690;BME280;8458;52.220;9.884;2023-01-13T04:43:15;99513.72;;;9.29;90.31
16690;BME280;8458;52.220;9.884;2023-01-13T04:45:41;99520.41;;;9.23;91.36
16690;BME280;8458;52.220;9.884;2023-01-13T04:48:08;99526.25;;;9.16;91.67
16690;BME280;8458;52.220;9.884;2023-01-13T04:50:34;99528.72;;;9.18;90.29
16690;BME280;8458;52.220;9.884;2023-01-13T04:53:02;99525.94;;;9.23;90.68
16690;BME280;8458;52.220;9.884;2023-01-13T04:55:29;99533.16;;;9.19;90.89
16690;BME280;8458;52.220;9.884;2023-01-13T04:58:00;99531.72;;;9.26;91.29
16690;BME280;8458;52.220;9.884;2023-01-13T05:00:27;99527.03;;;9.27;90.99
16690;BME280;8458;52.220;9.884;2023-01-13T05:02:53;99528.19;;;9.15;89.34
16690;BME280;8458;52.220;9.884;2023-01-13T05:05:20;99514.38;;;9.10;88.10
16690;BME280;8458;52.220;9.884;2023-01-13T05:07:46;99522.66;;;9.10;87.49
16690;BME280;8458;52.220;9.884;2023-01-13T05:10:15;99508.31;;;9.08;87.89
16690;BME280;8458;52.220;9.884;2023-01-13T05:12:41;99520.47;;;9.12;88.01
16690;BME280;8458;52.220;9.884;2023-01-13T05:15:25;99515.22;;;9.11;88.52
16690;BME280;8458;52.220;9.884;2023-01-13T05:18:09;99519.94;;;9.05;87.86
16690;BME280;8458;52.220;9.884;2023-01-13T05:20:36;99525.50;;;9.00;87.86
16690;BME280;8458;52.220;9.884;2023-01-13T05:23:03;99526.59;;;8.99;87.98
16690;BME280;8458;52.220;9.884;2023-01-13T05:25:48;99523.00;;;8.93;88.35
16690;BME280;8458;52.220;9.884;2023-01-13T05:28:15;99522.16;;;8.98;88.30
16690;BME280;8458;52.220;9.884;2023-01-13T05:30:43;99527.97;;;8.96;88.34
16690;BME280;8458;52.220;9.884;2023-01-13T05:33:13;99529.38;;;8.94;88.43
16690;BME280;8458;52.220;9.884;2023-01-13T05:35:42;99506.16;;;8.90;86.04
16690;BME280;8458;52.220;9.884;2023-01-13T05:38:10;99526.06;;;8.92;86.00
16690;BME280;8458;52.220;9.884;2023-01-13T05:40:37;99523.31;;;8.87;85.12
16690;BME280;8458;52.220;9.884;2023-01-13T05:43:22;99508.94;;;8.90;84.93
16690;BME280;8458;52.220;9.884;2023-01-13T05:45:51;99515.56;;;8.89;84.70
16690;BME280;8458;52.220;9.884;2023-01-13T05:48:20;99507.03;;;8.85;84.44
16690;BME280;8458;52.220;9.884;2023-01-13T05:50:47;99506.19;;;8.85;84.37
16690;BME280;8458;52.220;9.884;2023-01-13T05:53:15;99502.06;;;8.82;83.77
16690;BME280;8458;52.220;9.884;2023-01-13T05:55:42;99501.25;;;8.82;82.51
16690;BME280;8458;52.220;9.884;2023-01-13T05:58:10;99511.16;;;8.83;82.51
16690;BME280;8458;52.220;9.884;2023-01-13T06:00:38;99512.81;;;8.84;82.66
16690;BME280;8458;52.220;9.884;2023-01-13T06:03:05;99513.38;;;8.81;83.11
16690;BME280;8458;52.220;9.884;2023-01-13T06:05:32;99526.13;;;8.82;83.10
16690;BME280;8458;52.220;9.884;2023-01-13T06:08:00;99527.22;;;8.81;83.27
16690;BME280;8458;52.220;9.884;2023-01-13T06:10:27;99524.97;;;8.83;84.42
16690;BME280;8458;52.220;9.884;2023-01-13T06:12:54;99526.69;;;8.78;85.20
16690;BME280;8458;52.220;9.884;2023-01-13T06:15:21;99536.03;;;8.88;85.63
16690;BME280;8458;52.220;9.884;2023-01-13T06:17:49;99533.56;;;8.86;85.81
16690;BME280;8458;52.220;9.884;2023-01-13T06:20:16;99532.19;;;8.84;85.80
16690;BME280;8458;52.220;9.884;2023-01-13T06:22:46;99527.50;;;8.79;84.79
16690;BME280;8458;52.220;9.884;2023-01-13T06:25:18;99527.19;;;8.86;84.39
16690;BME280;8458;52.220;9.884;2023-01-13T06:27:47;99532.72;;;8.86;83.70
16690;BME280;8458;52.220;9.884;2023-01-13T06:30:14;99524.41;;;8.91;83.32
16690;BME280;8458;52.220;9.884;2023-01-13T06:32:44;99523.88;;;8.94;83.19
16690;BME280;8458;52.220;9.884;2023-01-13T06:35:14;99525.22;;;8.96;82.00
16690;BME280;8458;52.220;9.884;2023-01-13T06:37:43;99528.28;;;8.90;82.64
16690;BME280;8458;52.220;9.884;2023-01-13T06:40:12;99531.88;;;8.90;82.48
16690;BME280;8458;52.220;9.884;2023-01-13T06:42:40;99521.66;;;8.91;82.44
16690;BME280;8458;52.220;9.884;2023-01-13T06:45:25;99540.44;;;8.89;82.29
16690;BME280;8458;52.220;9.884;2023-01-13T06:47:52;99533.81;;;8.90;81.92
16690;BME280;8458;52.220;9.884;2023-01-13T06:50:22;99535.47;;;8.86;81.45
16690;BME280;8458;52.220;9.884;2023-01-13T06:52:49;99533.56;;;8.81;81.51
16690;BME280;8458;52.220;9.884;2023-01-13T06:55:16;99526.69;;;8.78;82.18
16690;BME280;8458;52.220;9.884;2023-01-13T06:57:47;99523.31;;;8.87;81.69
16690;BME280;8458;52.220;9.884;2023-01-13T07:00:14;99530.53;;;8.88;81.89
16690;BME280;8458;52.220;9.884;2023-01-13T07:02:41;99539.09;;;8.86;81.70
16690;BME280;8458;52.220;9.884;2023-01-13T07:05:08;99555.97;;;8.85;81.11
16690;BME280;8458;52.220;9.884;2023-01-13T07:07:36;99552.63;;;8.88;81.73
16690;BME280;8458;52.220;9.884;2023-01-13T07:10:03;99551.22;;;8.90;81.47
16690;BME280;8458;52.220;9.884;2023-01-13T07:12:29;99549.88;;;8.88;81.38
16690;BME280;8458;52.220;9.884;2023-01-13T07:15:16;99549.84;;;8.83;80.90
16690;BME280;8458;52.220;9.884;2023-01-13T07:17:44;99562.84;;;8.87;80.75
16690;BME280;8458;52.220;9.884;2023-01-13T07:20:11;99560.09;;;8.82;80.44
16690;BME280;8458;52.220;9.884;2023-01-13T07:22:39;99559.81;;;8.84;80.87
16690;BME280;8458;52.220;9.884;2023-01-13T07:25:07;99565.38;;;8.78;80.79
16690;BME280;8458;52.220;9.884;2023-01-13T07:27:33;99560.97;;;8.72;80.51
16690;BME280;8458;52.220;9.884;2023-01-13T07:30:00;99561.78;;;8.73;80.74
16690;BME280;8458;52.220;9.884;2023-01-13T07:32:26;99573.66;;;8.73;81.06
16690;BME280;8458;52.220;9.884;2023-01-13T07:34:53;99576.41;;;8.73;80.89
16690;BME280;8458;52.220;9.884;2023-01-13T07:37:19;99580.81;;;8.79;81.01
16690;BME280;8458;52.220;9.884;2023-01-13T07:39:47;99589.41;;;8.73;80.51
16690;BME280;8458;52.220;9.884;2023-01-13T07:42:14;99578.09;;;8.69;80.96
16690;BME280;8458;52.220;9.884;2023-01-13T07:44:58;99577.53;;;8.72;80.82
16690;BME280;8458;52.220;9.884;2023-01-13T07:47:24;99582.78;;;8.74;80.48
16690;BME280;8458;52.220;9.884;2023-01-13T07:49:51;99572.84;;;8.73;80.61
16690;BME280;8458;52.220;9.884;2023-01-13T07:52:17;99577.81;;;8.71;80.78
16690;BME280;8458;52.220;9.884;2023-01-13T07:54:44;99573.66;;;8.68;80.95
16690;BME280;8458;52.220;9.884;2023-01-13T07:57:11;99572.56;;;8.69;80.14
16690;BME280;8458;52.220;9.884;2023-01-13T07:59:38;99565.38;;;8.68;79.94
16690;BME280;8458;52.220;9.884;2023-01-13T08:02:05;99567.88;;;8.70;80.19
16690;BME280;8458;52.220;9.884;2023-01-13T08:04:32;99564.56;;;8.57;80.69
16690;BME280;8458;52.220;9.884;2023-01-13T08:06:59;99580.84;;;8.64;80.09
16690;BME280;8458;52.220;9.884;2023-01-13T08:09:25;99570.34;;;8.61;79.86
16690;BME280;8458;52.220;9.884;2023-01-13T08:11:52;99571.47;;;8.65;80.57
16690;BME280;8458;52.220;9.884;2023-01-13T08:14:41;99579.75;;;8.65;80.37
16690;BME280;8458;52.220;9.884;2023-01-13T08:17:08;99574.53;;;8.58;80.09
16690;BME280;8458;52.220;9.884;2023-01-13T08:19:34;99585.31;;;8.60;80.56
16690;BME280;8458;52.220;9.884;2023-01-13T08:22:01;99587.22;;;8.59;81.38
16690;BME280;8458;52.220;9.884;2023-01-13T08:24:27;99586.94;;;8.61;80.69
16690;BME280;8458;52.220;9.884;2023-01-13T08:26:54;99590.81;;;8.60;80.48
16690;BME280;8458;52.220;9.884;2023-01-13T08:29:20;99585.31;;;8.60;80.51
16690;BME280;8458;52.220;9.884;2023-01-13T08:31:48;99583.06;;;8.62;80.16
16690;BME280;8458;52.220;9.884;2023-01-13T08:34:15;99587.22;;;8.65;80.36
16690;BME280;8458;52.220;9.884;2023-01-13T08:36:41;99594.38;;;8.66;80.34
16690;BME280;8458;52.220;9.884;2023-01-13T08:39:07;99601.88;;;8.65;80.09
16690;BME280;8458;52.220;9.884;2023-01-13T08:41:34;99598.00;;;8.66;79.99
16690;BME280;8458;52.220;9.884;2023-01-13T08:44:18;99612.09;;;8.59;79.95
16690;BME280;8458;52.220;9.884;2023-01-13T08:46:44;99601.88;;;8.60;79.39
16690;BME280;8458;52.220;9.884;2023-01-13T08:49:12;99604.91;;;8.58;78.73
16690;BME280;8458;52.220;9.884;2023-01-13T08:51:38;99610.16;;;8.60;77.80
16690;BME280;8458;52.220;9.884;2023-01-13T08:54:05;99592.47;;;8.61;77.81
16690;BME280;8458;52.220;9.884;2023-01-13T08:56:31;99602.41;;;8.67;77.48
16690;BME280;8458;52.220;9.884;2023-01-13T08:58:58;99598.00;;;8.61;76.34
16690;BME280;8458;52.220;9.884;2023-01-13T09:01:25;99609.03;;;8.61;75.48
16690;BME280;8458;52.220;9.884;2023-01-13T09:03:52;99605.19;;;8.62;74.95
16690;BME280;8458;52.220;9.884;2023-01-13T09:06:20;99609.88;;;8.61;75.52
16690;BME280;8458;52.220;9.884;2023-01-13T09:08:47;99608.78;;;8.57;75.79
16690;BME280;8458;52.220;9.884;2023-01-13T09:11:16;99595.78;;;8.58;74.92
16690;BME280;8458;52.220;9.884;2023-01-13T09:14:00;99604.63;;;8.55;74.48
16690;BME280;8458;52.220;9.884;2023-01-13T09:16:27;99604.06;;;8.58;74.64
16690;BME280;8458;52.220;9.884;2023-01-13T09:18:53;99603.25;;;8.57;74.14
16690;BME280;8458;52.220;9.884;2023-01-13T09:21:21;99598.53;;;8.58;74.83
16690;BME280;8458;52.220;9.884;2023-01-13T09:23:48;99596.91;;;8.57;74.92
16690;BME280;8458;52.220;9.884;2023-01-13T09:26:15;99606.84;;;8.58;75.35
16690;BME280;8458;52.220;9.884;2023-01-13T09:28:45;99609.31;;;8.59;74.64
16690;BME280;8458;52.220;9.884;2023-01-13T09:31:11;99616.22;;;8.52;75.36
16690;BME280;8458;52.220;9.884;2023-01-13T09:33:38;99606.28;;;8.56;75.53
16690;BME280;8458;52.220;9.884;2023-01-13T09:36:23;99614.56;;;8.61;75.29
16690;BME280;8458;52.220;9.884;2023-01-13T09:38:49;99621.22;;;8.65;74.42
16690;BME280;8458;52.220;9.884;2023-01-13T09:41:18;99622.31;;;8.69;75.37
16690;BME280;8458;52.220;9.884;2023-01-13T09:44:00;99623.13;;;8.70;75.17
16690;BME280;8458;52.220;9.884;2023-01-13T09:46:31;99616.78;;;8.69;74.38
16690;BME280;8458;52.220;9.884;2023-01-13T09:49:11;99619.28;;;8.71;73.96
16690;BME280;8458;52.220;9.884;2023-01-13T09:51:50;99619.00;;;8.72;74.47
16690;BME280;8458;52.220;9.884;2023-01-13T09:54:24;99608.47;;;8.74;73.73
16690;BME280;8458;52.220;9.884;2023-01-13T09:56:56;99614.00;;;8.74;72.63
16690;BME280;8458;52.220;9.884;2023-01-13T09:59:25;99611.25;;;8.74;73.11
16690;BME280;8458;52.220;9.884;2023-01-13T10:01:56;99620.06;;;8.76;72.52
16690;BME280;8458;52.220;9.884;2023-01-13T10:04:25;99616.19;;;8.83;72.51
16690;BME280;8458;52.220;9.884;2023-01-13T10:06:55;99623.94;;;8.81;73.56
16690;BME280;8458;52.220;9.884;2023-01-13T10:09:26;99618.16;;;8.77;73.39
16690;BME280;8458;52.220;9.884;2023-01-13T10:11:56;99619.81;;;8.78;73.72
16690;BME280;8458;52.220;9.884;2023-01-13T10:14:46;99623.41;;;8.73;74.05
16690;BME280;8458;52.220;9.884;2023-01-13T10:17:20;99613.19;;;8.74;74.04
16690;BME280;8458;52.220;9.884;2023-01-13T10:19:54;99628.38;;;8.76;74.06
16690;BME280;8458;52.220;9.884;2023-01-13T10:22:37;99610.69;;;8.77;74.31
16690;BME280;8458;52.220;9.884;2023-01-13T10:25:16;99615.13;;;8.78;73.62
16690;BME280;8458;52.220;9.884;2023-01-13T10:27:47;99616.75;;;8.79;74.25
16690;BME280;8458;52.220;9.884;2023-01-13T10:30:20;99627.00;;;8.79;73.92
16690;BME280;8458;52.220;9.884;2023-01-13T10:32:52;99631.16;;;8.82;73.76
16690;BME280;8458;52.220;9.884;2023-01-13T10:35:46;99617.31;;;8.76;74.52
16690;BME280;8458;52.220;9.884;2023-01-13T10:38:17;99609.59;;;8.78;73.04
16690;BME280;8458;52.220;9.884;2023-01-13T10:40:48;99627.81;;;8.79;72.01
16690;BME280;8458;52.220;9.884;2023-01-13T10:43:15;99622.28;;;8.79;73.01
16690;BME280;8458;52.220;9.884;2023-01-13T10:45:59;99625.03;;;8.79;71.55
16690;BME280;8458;52.220;9.884;2023-01-13T10:48:38;99626.44;;;8.82;71.70
16690;BME280;8458;52.220;9.884;2023-01-13T10:51:19;99635.00;;;8.81;72.12
16690;BME280;8458;52.220;9.884;2023-01-13T10:53:52;99627.25;;;8.83;72.11
16690;BME280;8458;52.220;9.884;2023-01-13T10:56:20;99637.22;;;8.84;71.97
16690;BME280;8458;52.220;9.884;2023-01-13T10:58:47;99631.69;;;8.78;71.73
16690;BME280;8458;52.220;9.884;2023-01-13T11:01:19;99644.69;;;8.78;71.27
16690;BME280;8458;52.220;9.884;2023-01-13T11:03:49;99644.41;;;8.79;71.48
16690;BME280;8458;52.220;9.884;2023-01-13T11:06:21;99651.59;;;8.81;71.63
16690;BME280;8458;52.220;9.884;2023-01-13T11:08:51;99649.09;;;8.79;71.80
16690;BME280;8458;52.220;9.884;2023-01-13T11:11:39;99655.44;;;8.79;71.35
16690;BME280;8458;52.220;9.884;2023-01-13T11:14:15;99653.25;;;8.82;70.63
16690;BME280;8458;52.220;9.884;2023-01-13T11:17:22;99658.22;;;8.79;71.46
16690;BME280;8458;52.220;9.884;2023-01-13T11:19:57;99656.00;;;8.76;71.58
16690;BME280;8458;52.220;9.884;2023-01-13T11:22:28;99662.66;;;8.81;71.72
16690;BME280;8458;52.220;9.884;2023-01-13T11:25:01;99656.00;;;8.76;71.95
16690;BME280;8458;52.220;9.884;2023-01-13T11:27:39;99658.78;;;8.76;71.56
16690;BME280;8458;52.220;9.884;2023-01-13T11:30:19;99665.44;;;8.75;71.94
16690;BME280;8458;52.220;9.884;2023-01-13T11:32:59;99668.19;;;8.81;72.65
16690;BME280;8458;52.220;9.884;2023-01-13T11:35:31;99674.81;;;8.79;72.09
16690;BME280;8458;52.220;9.884;2023-01-13T11:38:05;99672.59;;;8.82;72.57
16690;BME280;8458;52.220;9.884;2023-01-13T11:40:40;99664.88;;;8.78;71.36
16690;BME280;8458;52.220;9.884;2023-01-13T11:43:11;99668.19;;;8.81;72.47
16690;BME280;8458;52.220;9.884;2023-01-13T11:45:45;99663.22;;;8.77;71.94
16690;BME280;8458;52.220;9.884;2023-01-13T11:48:16;99665.94;;;8.83;72.66
16690;BME280;8458;52.220;9.884;2023-01-13T11:50:48;99665.13;;;8.82;72.70
16690;BME280;8458;52.220;9.884;2023-01-13T11:53:32;99663.47;;;8.81;71.63
16690;BME280;8458;52.220;9.884;2023-01-13T11:56:12;99665.13;;;8.82;72.48
16690;BME280;8458;52.220;9.884;2023-01-13T11:59:03;99664.31;;;8.82;72.50
16690;BME280;8458;52.220;9.884;2023-01-13T12:01:43;99662.09;;;8.84;72.28
16690;BME280;8458;52.220;9.884;2023-01-13T12:04:23;99664.88;;;8.78;72.44
16690;BME280;8458;52.220;9.884;2023-01-13T12:06:58;99657.13;;;8.81;73.23
16690;BME280;8458;52.220;9.884;2023-01-13T12:09:36;99656.03;;;8.82;73.60
16690;BME280;8458;52.220;9.884;2023-01-13T12:12:17;99662.38;;;8.82;72.61
16690;BME280;8458;52.220;9.884;2023-01-13T12:15:28;99658.22;;;8.85;72.98
16690;BME280;8458;52.220;9.884;2023-01-13T12:18:08;99651.56;;;8.86;73.53
16690;BME280;8458;52.220;9.884;2023-01-13T12:20:42;99645.50;;;8.89;73.38
16690;BME280;8458;52.220;9.884;2023-01-13T12:23:22;99649.91;;;8.90;72.80
16690;BME280;8458;52.220;9.884;2023-01-13T12:25:54;99645.50;;;8.94;73.13
16690;BME280;8458;52.220;9.884;2023-01-13T12:28:27;99649.38;;;8.88;73.30
16690;BME280;8458;52.220;9.884;2023-01-13T12:30:59;99646.06;;;8.91;73.32
16690;BME280;8458;52.220;9.884;2023-01-13T12:33:40;99648.81;;;8.86;72.64
16690;BME280;8458;52.220;9.884;2023-01-13T12:36:14;99635.00;;;8.91;72.96
16690;BME280;8458;52.220;9.884;2023-01-13T12:38:48;99648.25;;;8.89;72.92
16690;BME280;8458;52.220;9.884;2023-01-13T12:41:26;99638.31;;;8.88;73.21
16690;BME280;8458;52.220;9.884;2023-01-13T12:43:57;99641.66;;;8.85;73.46
16690;BME280;8458;52.220;9.884;2023-01-13T12:46:47;99657.09;;;8.86;72.73
16690;BME280;8458;52.220;9.884;2023-01-13T12:49:35;99650.47;;;8.87;74.56
16690;BME280;8458;52.220;9.884;2023-01-13T12:52:13;99665.13;;;8.72;75.56
16690;BME280;8458;52.220;9.884;2023-01-13T12:55:12;99643.88;;;8.62;76.13
16690;BME280;8458;52.220;9.884;2023-01-13T12:57:55;99646.09;;;8.60;76.23
16690;BME280;8458;52.220;9.884;2023-01-13T13:00:30;99650.50;;;8.61;77.28
16690;BME280;8458;52.220;9.884;2023-01-13T13:03:26;99637.25;;;8.48;78.63
16690;BME280;8458;52.220;9.884;2023-01-13T13:05:56;99631.72;;;8.53;79.63
16690;BME280;8458;52.220;9.884;2023-01-13T13:08:38;99647.75;;;8.51;78.99
16690;BME280;8458;52.220;9.884;2023-01-13T13:11:33;99655.19;;;8.50;79.09
16690;BME280;8458;52.220;9.884;2023-01-13T13:17:45;99634.44;;;8.32;82.39
16690;BME280;8458;52.220;9.884;2023-01-13T13:20:52;99645.75;;;8.20;83.09
16690;BME280;8458;52.220;9.884;2023-01-13T13:23:36;99645.47;;;8.22;83.37
16690;BME280;8458;52.220;9.884;2023-01-13T13:26:14;99644.66;;;8.26;82.21
16690;BME280;8458;52.220;9.884;2023-01-13T13:28:49;99644.94;;;8.25;81.54
16690;BME280;8458;52.220;9.884;2023-01-13T13:31:29;99639.44;;;8.35;81.18
16690;BME280;8458;52.220;9.884;2023-01-13T13:34:14;99628.38;;;8.35;80.47
16690;BME280;8458;52.220;9.884;2023-01-13T13:36:56;99642.72;;;8.42;80.58
16690;BME280;8458;52.220;9.884;2023-01-13T13:39:29;99646.63;;;8.47;80.71
16690;BME280;8458;52.220;9.884;2023-01-13T13:42:17;99643.88;;;8.47;81.88
16690;BME280;8458;52.220;9.884;2023-01-13T13:45:15;99663.22;;;8.47;81.52
16690;BME280;8458;52.220;9.884;2023-01-13T13:48:20;99659.84;;;8.39;81.54
16690;BME280;8458;52.220;9.884;2023-01-13T13:50:48;99672.00;;;8.33;82.25